sensor_id;sensor_type;location;lat;lon;timestamp;P1;durP1;ratioP1;P2;durP2;ratioP2
13218;SDS011;6674;49.152;11.918;2022-12-17T00:00:43;27.33;;;19.20;;
13218;SDS011;6674;49.152;11.918;2022-12-17T00:03:29;28.90;;;20.40;;
13218;SDS011;6674;49.152;11.918;2022-12-17T00:06:13;31.77;;;22.30;;
13218;SDS011;6674;49.152;11.918;2022-12-17T00:08:58;32.23;;;22.83;;
13218;SDS011;6674;49.152;11.918;2022-12-17T00:11:42;30.90;;;20.17;;
13218;SDS011;6674;49.152;11.918;2022-12-17T00:14:26;28.63;;;19.37;;
13218;SDS011;6674;49.152;11.918;2022-12-17T00:17:12;29.60;;;19.33;;
13218;SDS011;6674;49.152;11.918;2022-12-17T00:19:56;25.67;;;17.57;;
13218;SDS011;6674;49.152;11.918;2022-12-17T00:22:40;27.47;;;18.80;;
13218;SDS011;6674;49.152;11.918;2022-12-17T00:25:25;29.90;;;20.57;;
13218;SDS011;6674;49.152;11.918;2022-12-17T00:28:09;26.20;;;18.60;;
13218;SDS011;6674;49.152;11.918;2022-12-17T00:30:54;28.90;;;19.30;;
13218;SDS011;6674;49.152;11.918;2022-12-17T00:33:39;29.30;;;19.83;;
13218;SDS011;6674;49.152;11.918;2022-12-17T00:36:23;24.33;;;17.73;;
13218;SDS011;6674;49.152;11.918;2022-12-17T00:39:08;30.27;;;19.33;;
13218;SDS011;6674;49.152;11.918;2022-12-17T00:41:53;28.57;;;19.23;;
13218;SDS011;6674;49.152;11.918;2022-12-17T00:44:37;26.73;;;18.20;;
13218;SDS011;6674;49.152;11.918;2022-12-17T00:47:21;24.73;;;17.37;;
13218;SDS011;6674;49.152;11.918;2022-12-17T00:50:07;30.23;;;20.30;;
13218;SDS011;6674;49.152;11.918;2022-12-17T00:52:52;26.03;;;18.40;;
13218;SDS011;6674;49.152;11.918;2022-12-17T00:55:36;27.33;;;18.80;;
13218;SDS011;6674;49.152;11.918;2022-12-17T00:58:35;25.10;;;17.43;;
13218;SDS011;6674;49.152;11.918;2022-12-17T01:01:19;27.40;;;18.80;;
13218;SDS011;6674;49.152;11.918;2022-12-17T01:04:03;27.77;;;18.33;;
13218;SDS011;6674;49.152;11.918;2022-12-17T01:06:49;28.40;;;19.47;;
13218;SDS011;6674;49.152;11.918;2022-12-17T01:09:33;27.10;;;17.60;;
13218;SDS011;6674;49.152;11.918;2022-12-17T01:12:17;27.13;;;17.93;;
13218;SDS011;6674;49.152;11.918;2022-12-17T01:15:02;24.40;;;17.47;;
13218;SDS011;6674;49.152;11.918;2022-12-17T01:17:46;26.03;;;17.37;;
13218;SDS011;6674;49.152;11.918;2022-12-17T01:20:30;27.37;;;18.00;;
13218;SDS011;6674;49.152;11.918;2022-12-17T01:23:16;26.03;;;16.43;;
13218;SDS011;6674;49.152;11.918;2022-12-17T01:26:00;23.30;;;16.27;;
13218;SDS011;6674;49.152;11.918;2022-12-17T01:28:44;25.90;;;17.70;;
13218;SDS011;6674;49.152;11.918;2022-12-17T01:31:29;24.57;;;16.93;;
13218;SDS011;6674;49.152;11.918;2022-12-17T01:34:13;22.57;;;16.13;;
13218;SDS011;6674;49.152;11.918;2022-12-17T01:36:58;28.33;;;19.67;;
13218;SDS011;6674;49.152;11.918;2022-12-17T01:39:45;23.70;;;17.17;;
13218;SDS011;6674;49.152;11.918;2022-12-17T01:42:35;23.40;;;16.07;;
13218;SDS011;6674;49.152;11.918;2022-12-17T01:45:20;26.97;;;16.97;;
13218;SDS011;6674;49.152;11.918;2022-12-17T01:48:04;26.23;;;16.70;;
13218;SDS011;6674;49.152;11.918;2022-12-17T01:50:56;26.07;;;17.07;;
13218;SDS011;6674;49.152;11.918;2022-12-17T01:53:42;26.30;;;17.77;;
13218;SDS011;6674;49.152;11.918;2022-12-17T01:56:31;26.20;;;17.50;;
13218;SDS011;6674;49.152;11.918;2022-12-17T01:59:16;26.20;;;17.63;;
13218;SDS011;6674;49.152;11.918;2022-12-17T02:02:03;25.33;;;17.03;;
13218;SDS011;6674;49.152;11.918;2022-12-17T02:04:47;25.90;;;17.43;;
13218;SDS011;6674;49.152;11.918;2022-12-17T02:07:37;24.70;;;17.53;;
13218;SDS011;6674;49.152;11.918;2022-12-17T02:10:32;23.87;;;16.40;;
13218;SDS011;6674;49.152;11.918;2022-12-17T02:13:22;28.30;;;18.50;;
13218;SDS011;6674;49.152;11.918;2022-12-17T02:16:15;24.93;;;16.83;;
13218;SDS011;6674;49.152;11.918;2022-12-17T02:19:05;28.50;;;18.43;;
13218;SDS011;6674;49.152;11.918;2022-12-17T02:22:00;24.57;;;16.70;;
13218;SDS011;6674;49.152;11.918;2022-12-17T02:24:54;26.47;;;17.30;;
13218;SDS011;6674;49.152;11.918;2022-12-17T02:27:42;24.70;;;18.07;;
13218;SDS011;6674;49.152;11.918;2022-12-17T02:30:28;21.47;;;15.87;;
13218;SDS011;6674;49.152;11.918;2022-12-17T02:33:14;27.93;;;17.47;;
13218;SDS011;6674;49.152;11.918;2022-12-17T02:36:00;23.63;;;16.73;;
13218;SDS011;6674;49.152;11.918;2022-12-17T02:38:48;25.20;;;16.97;;
13218;SDS011;6674;49.152;11.918;2022-12-17T02:41:34;22.57;;;15.43;;
13218;SDS011;6674;49.152;11.918;2022-12-17T02:44:23;23.50;;;16.30;;
13218;SDS011;6674;49.152;11.918;2022-12-17T02:47:09;24.13;;;16.17;;
13218;SDS011;6674;49.152;11.918;2022-12-17T02:49:54;24.50;;;16.30;;
13218;SDS011;6674;49.152;11.918;2022-12-17T02:52:39;24.27;;;18.67;;
13218;SDS011;6674;49.152;11.918;2022-12-17T02:55:27;22.93;;;17.13;;
13218;SDS011;6674;49.152;11.918;2022-12-17T02:58:11;21.37;;;14.63;;
13218;SDS011;6674;49.152;11.918;2022-12-17T03:00:57;24.10;;;16.83;;
13218;SDS011;6674;49.152;11.918;2022-12-17T03:03:43;23.40;;;16.03;;
13218;SDS011;6674;49.152;11.918;2022-12-17T03:06:28;23.27;;;15.60;;
13218;SDS011;6674;49.152;11.918;2022-12-17T03:09:12;23.07;;;15.97;;
13218;SDS011;6674;49.152;11.918;2022-12-17T03:11:56;25.93;;;17.37;;
13218;SDS011;6674;49.152;11.918;2022-12-17T03:14:40;24.63;;;16.40;;
13218;SDS011;6674;49.152;11.918;2022-12-17T03:17:27;22.43;;;16.07;;
13218;SDS011;6674;49.152;11.918;2022-12-17T03:20:11;23.30;;;15.97;;
13218;SDS011;6674;49.152;11.918;2022-12-17T03:23:00;22.43;;;15.33;;
13218;SDS011;6674;49.152;11.918;2022-12-17T03:25:45;24.27;;;16.03;;
13218;SDS011;6674;49.152;11.918;2022-12-17T03:28:29;23.30;;;15.60;;
13218;SDS011;6674;49.152;11.918;2022-12-17T03:31:13;21.73;;;15.73;;
13218;SDS011;6674;49.152;11.918;2022-12-17T03:33:59;23.80;;;16.43;;
13218;SDS011;6674;49.152;11.918;2022-12-17T03:36:43;21.67;;;15.37;;
13218;SDS011;6674;49.152;11.918;2022-12-17T03:39:39;22.63;;;15.67;;
13218;SDS011;6674;49.152;11.918;2022-12-17T03:42:23;23.57;;;16.40;;
13218;SDS011;6674;49.152;11.918;2022-12-17T03:45:08;27.07;;;18.40;;
13218;SDS011;6674;49.152;11.918;2022-12-17T03:48:01;26.90;;;17.67;;
13218;SDS011;6674;49.152;11.918;2022-12-17T03:50:48;25.13;;;16.17;;
13218;SDS011;6674;49.152;11.918;2022-12-17T03:53:32;25.83;;;16.07;;
13218;SDS011;6674;49.152;11.918;2022-12-17T03:56:17;26.87;;;16.97;;
13218;SDS011;6674;49.152;11.918;2022-12-17T03:59:01;23.87;;;16.53;;
13218;SDS011;6674;49.152;11.918;2022-12-17T04:01:45;23.90;;;16.53;;
13218;SDS011;6674;49.152;11.918;2022-12-17T04:04:29;25.27;;;16.90;;
13218;SDS011;6674;49.152;11.918;2022-12-17T04:07:15;22.17;;;15.80;;
13218;SDS011;6674;49.152;11.918;2022-12-17T04:09:59;22.50;;;16.10;;
13218;SDS011;6674;49.152;11.918;2022-12-17T04:12:48;24.57;;;16.17;;
13218;SDS011;6674;49.152;11.918;2022-12-17T04:15:33;26.53;;;17.37;;
13218;SDS011;6674;49.152;11.918;2022-12-17T04:18:17;24.53;;;16.63;;
13218;SDS011;6674;49.152;11.918;2022-12-17T04:21:02;24.80;;;16.77;;
13218;SDS011;6674;49.152;11.918;2022-12-17T04:23:55;25.27;;;16.03;;
13218;SDS011;6674;49.152;11.918;2022-12-17T04:26:40;26.70;;;16.63;;
13218;SDS011;6674;49.152;11.918;2022-12-17T04:29:24;23.47;;;16.13;;
13218;SDS011;6674;49.152;11.918;2022-12-17T04:32:08;25.00;;;16.47;;
13218;SDS011;6674;49.152;11.918;2022-12-17T04:34:52;25.27;;;16.40;;
13218;SDS011;6674;49.152;11.918;2022-12-17T04:37:36;24.70;;;16.53;;
13218;SDS011;6674;49.152;11.918;2022-12-17T04:40:22;27.67;;;16.03;;
13218;SDS011;6674;49.152;11.918;2022-12-17T04:43:06;23.17;;;15.37;;
13218;SDS011;6674;49.152;11.918;2022-12-17T04:45:51;24.53;;;16.03;;
13218;SDS011;6674;49.152;11.918;2022-12-17T04:48:36;24.70;;;16.33;;
13218;SDS011;6674;49.152;11.918;2022-12-17T04:51:20;23.37;;;15.73;;
13218;SDS011;6674;49.152;11.918;2022-12-17T04:54:04;25.80;;;16.90;;
13218;SDS011;6674;49.152;11.918;2022-12-17T04:56:50;23.50;;;15.83;;
13218;SDS011;6674;49.152;11.918;2022-12-17T04:59:34;24.40;;;15.87;;
13218;SDS011;6674;49.152;11.918;2022-12-17T05:02:18;25.70;;;17.33;;
13218;SDS011;6674;49.152;11.918;2022-12-17T05:05:03;22.63;;;15.10;;
13218;SDS011;6674;49.152;11.918;2022-12-17T05:07:47;22.57;;;15.40;;
13218;SDS011;6674;49.152;11.918;2022-12-17T05:10:35;24.20;;;16.23;;
13218;SDS011;6674;49.152;11.918;2022-12-17T05:13:21;26.73;;;18.20;;
13218;SDS011;6674;49.152;11.918;2022-12-17T05:16:05;25.73;;;17.40;;
13218;SDS011;6674;49.152;11.918;2022-12-17T05:18:52;24.10;;;16.40;;
13218;SDS011;6674;49.152;11.918;2022-12-17T05:21:36;23.70;;;16.67;;
13218;SDS011;6674;49.152;11.918;2022-12-17T05:24:20;23.53;;;16.30;;
13218;SDS011;6674;49.152;11.918;2022-12-17T05:27:04;23.30;;;15.77;;
13218;SDS011;6674;49.152;11.918;2022-12-17T05:29:50;26.17;;;17.40;;
13218;SDS011;6674;49.152;11.918;2022-12-17T05:32:34;25.40;;;16.27;;
13218;SDS011;6674;49.152;11.918;2022-12-17T05:35:18;23.57;;;16.67;;
13218;SDS011;6674;49.152;11.918;2022-12-17T05:38:03;23.43;;;15.73;;
13218;SDS011;6674;49.152;11.918;2022-12-17T05:40:47;25.27;;;17.03;;
13218;SDS011;6674;49.152;11.918;2022-12-17T05:43:32;22.67;;;15.87;;
13218;SDS011;6674;49.152;11.918;2022-12-17T05:46:17;26.37;;;16.83;;
13218;SDS011;6674;49.152;11.918;2022-12-17T05:49:02;25.43;;;17.27;;
13218;SDS011;6674;49.152;11.918;2022-12-17T05:51:46;25.53;;;16.40;;
13218;SDS011;6674;49.152;11.918;2022-12-17T05:54:32;29.67;;;20.07;;
13218;SDS011;6674;49.152;11.918;2022-12-17T05:57:17;25.47;;;17.13;;
13218;SDS011;6674;49.152;11.918;2022-12-17T06:00:01;26.87;;;18.13;;
13218;SDS011;6674;49.152;11.918;2022-12-17T06:02:46;26.33;;;17.23;;
13218;SDS011;6674;49.152;11.918;2022-12-17T06:05:31;25.17;;;16.93;;
13218;SDS011;6674;49.152;11.918;2022-12-17T06:08:15;27.20;;;16.77;;
13218;SDS011;6674;49.152;11.918;2022-12-17T06:10:59;23.90;;;16.47;;
13218;SDS011;6674;49.152;11.918;2022-12-17T06:13:44;22.77;;;14.80;;
13218;SDS011;6674;49.152;11.918;2022-12-17T06:16:29;25.20;;;17.43;;
13218;SDS011;6674;49.152;11.918;2022-12-17T06:19:17;22.93;;;15.30;;
13218;SDS011;6674;49.152;11.918;2022-12-17T06:22:02;26.47;;;16.83;;
13218;SDS011;6674;49.152;11.918;2022-12-17T06:24:46;28.20;;;18.27;;
13218;SDS011;6674;49.152;11.918;2022-12-17T06:27:30;24.33;;;16.53;;
13218;SDS011;6674;49.152;11.918;2022-12-17T06:30:14;27.13;;;17.60;;
13218;SDS011;6674;49.152;11.918;2022-12-17T06:33:02;24.37;;;16.67;;
13218;SDS011;6674;49.152;11.918;2022-12-17T06:35:48;25.17;;;16.53;;
13218;SDS011;6674;49.152;11.918;2022-12-17T06:38:34;24.83;;;16.03;;
13218;SDS011;6674;49.152;11.918;2022-12-17T06:41:19;23.70;;;15.40;;
13218;SDS011;6674;49.152;11.918;2022-12-17T06:44:03;26.97;;;17.17;;
13218;SDS011;6674;49.152;11.918;2022-12-17T06:46:47;24.77;;;17.10;;
13218;SDS011;6674;49.152;11.918;2022-12-17T06:49:31;28.27;;;17.70;;
13218;SDS011;6674;49.152;11.918;2022-12-17T06:52:16;25.43;;;18.33;;
13218;SDS011;6674;49.152;11.918;2022-12-17T06:55:00;27.83;;;17.67;;
13218;SDS011;6674;49.152;11.918;2022-12-17T06:57:45;26.97;;;18.07;;
13218;SDS011;6674;49.152;11.918;2022-12-17T07:00:29;27.97;;;17.53;;
13218;SDS011;6674;49.152;11.918;2022-12-17T07:03:13;27.50;;;17.77;;
13218;SDS011;6674;49.152;11.918;2022-12-17T07:05:58;27.30;;;16.90;;
13218;SDS011;6674;49.152;11.918;2022-12-17T07:08:44;28.93;;;18.77;;
13218;SDS011;6674;49.152;11.918;2022-12-17T07:11:28;25.87;;;16.73;;
13218;SDS011;6674;49.152;11.918;2022-12-17T07:14:12;28.03;;;17.27;;
13218;SDS011;6674;49.152;11.918;2022-12-17T07:16:57;24.53;;;16.77;;
13218;SDS011;6674;49.152;11.918;2022-12-17T07:19:41;27.30;;;16.90;;
13218;SDS011;6674;49.152;11.918;2022-12-17T07:22:25;27.10;;;17.53;;
13218;SDS011;6674;49.152;11.918;2022-12-17T07:25:11;28.60;;;18.13;;
13218;SDS011;6674;49.152;11.918;2022-12-17T07:27:55;25.20;;;17.07;;
13218;SDS011;6674;49.152;11.918;2022-12-17T07:30:39;27.20;;;17.43;;
13218;SDS011;6674;49.152;11.918;2022-12-17T07:33:24;25.63;;;16.67;;
13218;SDS011;6674;49.152;11.918;2022-12-17T07:36:08;25.50;;;17.40;;
13218;SDS011;6674;49.152;11.918;2022-12-17T07:38:52;31.03;;;20.33;;
13218;SDS011;6674;49.152;11.918;2022-12-17T07:41:38;30.57;;;20.07;;
13218;SDS011;6674;49.152;11.918;2022-12-17T07:44:22;29.97;;;18.60;;
13218;SDS011;6674;49.152;11.918;2022-12-17T07:47:06;28.13;;;18.27;;
13218;SDS011;6674;49.152;11.918;2022-12-17T07:49:51;25.33;;;17.63;;
13218;SDS011;6674;49.152;11.918;2022-12-17T07:52:35;30.17;;;20.87;;
13218;SDS011;6674;49.152;11.918;2022-12-17T07:55:19;27.63;;;17.40;;
13218;SDS011;6674;49.152;11.918;2022-12-17T07:58:06;27.47;;;17.67;;
13218;SDS011;6674;49.152;11.918;2022-12-17T08:00:53;27.97;;;18.43;;
13218;SDS011;6674;49.152;11.918;2022-12-17T08:03:38;27.03;;;17.63;;
13218;SDS011;6674;49.152;11.918;2022-12-17T08:06:23;29.77;;;20.07;;
13218;SDS011;6674;49.152;11.918;2022-12-17T08:09:08;25.93;;;18.03;;
13218;SDS011;6674;49.152;11.918;2022-12-17T08:11:52;27.67;;;18.43;;
13218;SDS011;6674;49.152;11.918;2022-12-17T08:14:37;27.47;;;17.73;;
13218;SDS011;6674;49.152;11.918;2022-12-17T08:17:21;27.80;;;17.97;;
13218;SDS011;6674;49.152;11.918;2022-12-17T08:20:06;28.43;;;18.17;;
13218;SDS011;6674;49.152;11.918;2022-12-17T08:23:00;25.87;;;16.27;;
13218;SDS011;6674;49.152;11.918;2022-12-17T08:25:45;27.80;;;18.40;;
13218;SDS011;6674;49.152;11.918;2022-12-17T08:28:29;26.40;;;18.57;;
13218;SDS011;6674;49.152;11.918;2022-12-17T08:31:15;26.57;;;16.93;;
13218;SDS011;6674;49.152;11.918;2022-12-17T08:33:59;26.00;;;17.73;;
13218;SDS011;6674;49.152;11.918;2022-12-17T08:36:43;25.70;;;17.60;;
13218;SDS011;6674;49.152;11.918;2022-12-17T08:39:28;29.77;;;18.40;;
13218;SDS011;6674;49.152;11.918;2022-12-17T08:42:13;33.50;;;22.97;;
13218;SDS011;6674;49.152;11.918;2022-12-17T08:44:58;25.27;;;18.17;;
13218;SDS011;6674;49.152;11.918;2022-12-17T08:47:43;32.30;;;23.20;;
13218;SDS011;6674;49.152;11.918;2022-12-17T08:50:27;26.83;;;18.03;;
13218;SDS011;6674;49.152;11.918;2022-12-17T08:53:12;28.00;;;19.60;;
13218;SDS011;6674;49.152;11.918;2022-12-17T08:55:56;26.17;;;18.40;;
13218;SDS011;6674;49.152;11.918;2022-12-17T08:58:52;27.63;;;19.30;;
13218;SDS011;6674;49.152;11.918;2022-12-17T09:01:36;26.43;;;17.20;;
13218;SDS011;6674;49.152;11.918;2022-12-17T09:04:21;30.30;;;20.00;;
13218;SDS011;6674;49.152;11.918;2022-12-17T09:07:05;27.47;;;17.63;;
13218;SDS011;6674;49.152;11.918;2022-12-17T09:09:50;31.47;;;21.90;;
13218;SDS011;6674;49.152;11.918;2022-12-17T09:12:34;29.13;;;20.80;;
13218;SDS011;6674;49.152;11.918;2022-12-17T09:15:18;26.10;;;18.90;;
13218;SDS011;6674;49.152;11.918;2022-12-17T09:18:05;30.23;;;21.80;;
13218;SDS011;6674;49.152;11.918;2022-12-17T09:20:51;26.33;;;18.23;;
13218;SDS011;6674;49.152;11.918;2022-12-17T09:23:36;25.20;;;18.30;;
13218;SDS011;6674;49.152;11.918;2022-12-17T09:26:20;27.37;;;19.10;;
13218;SDS011;6674;49.152;11.918;2022-12-17T09:29:13;31.63;;;23.90;;
13218;SDS011;6674;49.152;11.918;2022-12-17T09:31:54;55.20;;;40.93;;
13218;SDS011;6674;49.152;11.918;2022-12-17T09:34:38;37.77;;;28.70;;
13218;SDS011;6674;49.152;11.918;2022-12-17T09:37:24;46.13;;;33.37;;
13218;SDS011;6674;49.152;11.918;2022-12-17T09:40:08;30.83;;;23.23;;
13218;SDS011;6674;49.152;11.918;2022-12-17T09:43:00;33.47;;;25.17;;
13218;SDS011;6674;49.152;11.918;2022-12-17T09:45:49;25.17;;;16.67;;
13218;SDS011;6674;49.152;11.918;2022-12-17T09:48:44;23.63;;;17.67;;
13218;SDS011;6674;49.152;11.918;2022-12-17T09:51:39;26.10;;;21.07;;
13218;SDS011;6674;49.152;11.918;2022-12-17T09:54:26;24.50;;;17.17;;
13218;SDS011;6674;49.152;11.918;2022-12-17T09:57:15;24.07;;;17.33;;
13218;SDS011;6674;49.152;11.918;2022-12-17T10:00:02;27.77;;;19.73;;
13218;SDS011;6674;49.152;11.918;2022-12-17T10:02:52;24.33;;;18.23;;
13218;SDS011;6674;49.152;11.918;2022-12-17T10:05:36;24.73;;;18.80;;
13218;SDS011;6674;49.152;11.918;2022-12-17T10:08:23;22.77;;;16.00;;
13218;SDS011;6674;49.152;11.918;2022-12-17T10:11:14;22.33;;;16.50;;
13218;SDS011;6674;49.152;11.918;2022-12-17T10:13:58;20.00;;;15.50;;
13218;SDS011;6674;49.152;11.918;2022-12-17T10:16:41;22.53;;;16.07;;
13218;SDS011;6674;49.152;11.918;2022-12-17T10:19:29;20.17;;;15.17;;
13218;SDS011;6674;49.152;11.918;2022-12-17T10:22:17;22.50;;;16.17;;
13218;SDS011;6674;49.152;11.918;2022-12-17T10:25:14;19.93;;;15.63;;
13218;SDS011;6674;49.152;11.918;2022-12-17T10:28:02;22.10;;;15.43;;
13218;SDS011;6674;49.152;11.918;2022-12-17T10:30:48;14.87;;;11.43;;
13218;SDS011;6674;49.152;11.918;2022-12-17T10:33:35;20.33;;;15.20;;
13218;SDS011;6674;49.152;11.918;2022-12-17T10:36:21;21.70;;;16.07;;
13218;SDS011;6674;49.152;11.918;2022-12-17T10:39:11;21.90;;;16.17;;
13218;SDS011;6674;49.152;11.918;2022-12-17T10:41:58;24.70;;;16.73;;
13218;SDS011;6674;49.152;11.918;2022-12-17T10:44:44;20.63;;;15.70;;
13218;SDS011;6674;49.152;11.918;2022-12-17T10:47:28;21.10;;;15.30;;
13218;SDS011;6674;49.152;11.918;2022-12-17T10:50:13;20.93;;;15.73;;
13218;SDS011;6674;49.152;11.918;2022-12-17T10:52:58;20.80;;;15.17;;
13218;SDS011;6674;49.152;11.918;2022-12-17T10:55:46;21.67;;;16.30;;
13218;SDS011;6674;49.152;11.918;2022-12-17T10:58:32;18.97;;;14.23;;
13218;SDS011;6674;49.152;11.918;2022-12-17T11:01:19;18.43;;;14.53;;
13218;SDS011;6674;49.152;11.918;2022-12-17T11:04:19;18.90;;;13.97;;
13218;SDS011;6674;49.152;11.918;2022-12-17T11:07:06;20.13;;;15.23;;
13218;SDS011;6674;49.152;11.918;2022-12-17T11:09:52;18.73;;;13.70;;
13218;SDS011;6674;49.152;11.918;2022-12-17T11:12:41;16.13;;;13.07;;
13218;SDS011;6674;49.152;11.918;2022-12-17T11:15:29;19.73;;;14.03;;
13218;SDS011;6674;49.152;11.918;2022-12-17T11:18:21;19.00;;;14.53;;
13218;SDS011;6674;49.152;11.918;2022-12-17T11:21:09;18.80;;;14.90;;
13218;SDS011;6674;49.152;11.918;2022-12-17T11:23:56;20.43;;;15.60;;
13218;SDS011;6674;49.152;11.918;2022-12-17T11:26:42;19.50;;;15.73;;
13218;SDS011;6674;49.152;11.918;2022-12-17T11:29:29;20.97;;;16.13;;
13218;SDS011;6674;49.152;11.918;2022-12-17T11:32:21;19.80;;;15.23;;
13218;SDS011;6674;49.152;11.918;2022-12-17T11:35:22;20.43;;;15.77;;
13218;SDS011;6674;49.152;11.918;2022-12-17T11:38:30;19.70;;;15.13;;
13218;SDS011;6674;49.152;11.918;2022-12-17T11:41:20;20.00;;;14.93;;
13218;SDS011;6674;49.152;11.918;2022-12-17T11:44:14;17.13;;;13.97;;
13218;SDS011;6674;49.152;11.918;2022-12-17T11:47:06;19.37;;;14.43;;
13218;SDS011;6674;49.152;11.918;2022-12-17T11:49:58;18.60;;;15.27;;
13218;SDS011;6674;49.152;11.918;2022-12-17T11:52:55;19.00;;;14.97;;
13218;SDS011;6674;49.152;11.918;2022-12-17T11:55:45;19.20;;;14.77;;
13218;SDS011;6674;49.152;11.918;2022-12-17T11:58:35;17.43;;;13.50;;
13218;SDS011;6674;49.152;11.918;2022-12-17T12:01:25;15.60;;;12.20;;
13218;SDS011;6674;49.152;11.918;2022-12-17T12:04:19;16.47;;;12.33;;
13218;SDS011;6674;49.152;11.918;2022-12-17T12:07:12;14.33;;;11.90;;
13218;SDS011;6674;49.152;11.918;2022-12-17T12:10:02;13.70;;;11.87;;
13218;SDS011;6674;49.152;11.918;2022-12-17T12:12:54;14.50;;;11.83;;
13218;SDS011;6674;49.152;11.918;2022-12-17T12:15:48;14.10;;;10.83;;
13218;SDS011;6674;49.152;11.918;2022-12-17T12:18:42;14.90;;;11.30;;
13218;SDS011;6674;49.152;11.918;2022-12-17T12:21:37;14.43;;;11.57;;
13218;SDS011;6674;49.152;11.918;2022-12-17T12:24:27;13.97;;;11.30;;
13218;SDS011;6674;49.152;11.918;2022-12-17T12:27:25;12.87;;;9.93;;
13218;SDS011;6674;49.152;11.918;2022-12-17T12:30:18;14.23;;;11.33;;
13218;SDS011;6674;49.152;11.918;2022-12-17T12:33:07;14.10;;;11.13;;
13218;SDS011;6674;49.152;11.918;2022-12-17T12:36:05;14.00;;;10.50;;
13218;SDS011;6674;49.152;11.918;2022-12-17T12:38:53;14.20;;;11.17;;
13218;SDS011;6674;49.152;11.918;2022-12-17T12:41:41;13.30;;;10.67;;
13218;SDS011;6674;49.152;11.918;2022-12-17T12:44:33;14.10;;;10.40;;
13218;SDS011;6674;49.152;11.918;2022-12-17T12:47:27;13.03;;;10.63;;
13218;SDS011;6674;49.152;11.918;2022-12-17T12:50:19;13.37;;;11.60;;
13218;SDS011;6674;49.152;11.918;2022-12-17T12:53:08;20.23;;;18.30;;
13218;SDS011;6674;49.152;11.918;2022-12-17T12:55:53;18.00;;;16.10;;
13218;SDS011;6674;49.152;11.918;2022-12-17T12:58:46;13.77;;;11.30;;
13218;SDS011;6674;49.152;11.918;2022-12-17T13:01:47;14.70;;;12.10;;
13218;SDS011;6674;49.152;11.918;2022-12-17T13:04:32;14.30;;;10.00;;
13218;SDS011;6674;49.152;11.918;2022-12-17T13:07:32;11.90;;;9.73;;
13218;SDS011;6674;49.152;11.918;2022-12-17T13:09:59;11.17;;;9.83;;
13218;SDS011;6674;49.152;11.918;2022-12-17T13:12:30;10.57;;;9.47;;
13218;SDS011;6674;49.152;11.918;2022-12-17T13:17:56;11.43;;;9.60;;
13218;SDS011;6674;49.152;11.918;2022-12-17T13:20:31;11.17;;;9.70;;
13218;SDS011;6674;49.152;11.918;2022-12-17T13:23:13;11.60;;;9.47;;
13218;SDS011;6674;49.152;11.918;2022-12-17T13:25:41;11.80;;;9.60;;
13218;SDS011;6674;49.152;11.918;2022-12-17T13:30:58;13.87;;;11.30;;
13218;SDS011;6674;49.152;11.918;2022-12-17T13:33:28;10.27;;;8.47;;
13218;SDS011;6674;49.152;11.918;2022-12-17T13:36:05;9.30;;;8.00;;
13218;SDS011;6674;49.152;11.918;2022-12-17T13:38:40;10.70;;;8.93;;
13218;SDS011;6674;49.152;11.918;2022-12-17T13:41:11;9.10;;;7.73;;
13218;SDS011;6674;49.152;11.918;2022-12-17T13:43:41;9.87;;;8.43;;
13218;SDS011;6674;49.152;11.918;2022-12-17T13:46:19;9.47;;;7.83;;
13218;SDS011;6674;49.152;11.918;2022-12-17T13:48:55;10.17;;;8.53;;
13218;SDS011;6674;49.152;11.918;2022-12-17T13:51:24;10.13;;;8.30;;
13218;SDS011;6674;49.152;11.918;2022-12-17T13:53:54;9.00;;;7.80;;
13218;SDS011;6674;49.152;11.918;2022-12-17T13:56:22;8.20;;;7.27;;
13218;SDS011;6674;49.152;11.918;2022-12-17T13:58:51;8.93;;;7.30;;
13218;SDS011;6674;49.152;11.918;2022-12-17T14:01:18;9.70;;;7.53;;
13218;SDS011;6674;49.152;11.918;2022-12-17T14:03:50;7.73;;;6.77;;
13218;SDS011;6674;49.152;11.918;2022-12-17T14:06:19;9.73;;;7.60;;
13218;SDS011;6674;49.152;11.918;2022-12-17T14:08:47;7.90;;;6.80;;
13218;SDS011;6674;49.152;11.918;2022-12-17T14:11:16;8.67;;;7.07;;
13218;SDS011;6674;49.152;11.918;2022-12-17T14:14:00;8.37;;;7.27;;
13218;SDS011;6674;49.152;11.918;2022-12-17T14:16:28;10.30;;;8.23;;
13218;SDS011;6674;49.152;11.918;2022-12-17T14:18:55;10.47;;;8.27;;
13218;SDS011;6674;49.152;11.918;2022-12-17T14:21:25;8.87;;;7.60;;
13218;SDS011;6674;49.152;11.918;2022-12-17T14:23:53;7.93;;;6.50;;
13218;SDS011;6674;49.152;11.918;2022-12-17T14:26:23;7.53;;;6.27;;
13218;SDS011;6674;49.152;11.918;2022-12-17T14:28:51;8.43;;;6.60;;
13218;SDS011;6674;49.152;11.918;2022-12-17T14:31:19;8.40;;;7.00;;
13218;SDS011;6674;49.152;11.918;2022-12-17T14:33:58;8.50;;;7.03;;
13218;SDS011;6674;49.152;11.918;2022-12-17T14:36:27;8.40;;;6.43;;
13218;SDS011;6674;49.152;11.918;2022-12-17T14:38:56;6.97;;;5.37;;
13218;SDS011;6674;49.152;11.918;2022-12-17T14:41:24;7.57;;;6.37;;
13218;SDS011;6674;49.152;11.918;2022-12-17T14:44:12;7.80;;;6.63;;
13218;SDS011;6674;49.152;11.918;2022-12-17T14:46:43;10.23;;;7.40;;
13218;SDS011;6674;49.152;11.918;2022-12-17T14:49:11;10.63;;;8.40;;
13218;SDS011;6674;49.152;11.918;2022-12-17T14:51:44;9.50;;;7.30;;
13218;SDS011;6674;49.152;11.918;2022-12-17T14:54:17;8.47;;;7.00;;
13218;SDS011;6674;49.152;11.918;2022-12-17T14:56:46;8.63;;;7.13;;
13218;SDS011;6674;49.152;11.918;2022-12-17T14:59:29;9.43;;;7.57;;
13218;SDS011;6674;49.152;11.918;2022-12-17T15:04:25;11.23;;;7.77;;
13218;SDS011;6674;49.152;11.918;2022-12-17T15:06:53;11.27;;;7.53;;
13218;SDS011;6674;49.152;11.918;2022-12-17T15:09:21;7.63;;;6.77;;
13218;SDS011;6674;49.152;11.918;2022-12-17T15:11:47;9.87;;;7.20;;
13218;SDS011;6674;49.152;11.918;2022-12-17T15:14:14;9.57;;;7.40;;
13218;SDS011;6674;49.152;11.918;2022-12-17T15:16:41;9.90;;;7.07;;
13218;SDS011;6674;49.152;11.918;2022-12-17T15:19:07;9.47;;;7.73;;
13218;SDS011;6674;49.152;11.918;2022-12-17T15:21:34;9.50;;;7.40;;
13218;SDS011;6674;49.152;11.918;2022-12-17T15:24:02;9.30;;;7.73;;
13218;SDS011;6674;49.152;11.918;2022-12-17T15:26:29;8.10;;;6.60;;
13218;SDS011;6674;49.152;11.918;2022-12-17T15:28:56;8.97;;;7.10;;
13218;SDS011;6674;49.152;11.918;2022-12-17T15:31:22;9.03;;;6.90;;
13218;SDS011;6674;49.152;11.918;2022-12-17T15:33:49;9.17;;;7.60;;
13218;SDS011;6674;49.152;11.918;2022-12-17T15:36:16;11.83;;;9.30;;
13218;SDS011;6674;49.152;11.918;2022-12-17T15:38:42;11.10;;;8.80;;
13218;SDS011;6674;49.152;11.918;2022-12-17T15:41:11;9.73;;;7.57;;
13218;SDS011;6674;49.152;11.918;2022-12-17T15:43:55;14.67;;;10.40;;
13218;SDS011;6674;49.152;11.918;2022-12-17T15:46:22;12.37;;;8.97;;
13218;SDS011;6674;49.152;11.918;2022-12-17T15:48:49;11.47;;;9.17;;
13218;SDS011;6674;49.152;11.918;2022-12-17T15:51:15;12.00;;;9.50;;
13218;SDS011;6674;49.152;11.918;2022-12-17T15:53:43;12.03;;;8.57;;
13218;SDS011;6674;49.152;11.918;2022-12-17T15:56:17;13.00;;;9.17;;
13218;SDS011;6674;49.152;11.918;2022-12-17T15:58:45;13.80;;;9.43;;
13218;SDS011;6674;49.152;11.918;2022-12-17T16:01:12;11.57;;;8.60;;
13218;SDS011;6674;49.152;11.918;2022-12-17T16:03:38;10.10;;;8.17;;
13218;SDS011;6674;49.152;11.918;2022-12-17T16:06:05;10.30;;;7.80;;
13218;SDS011;6674;49.152;11.918;2022-12-17T16:08:32;10.20;;;7.70;;